sensor_id;sensor_type;location;lat;lon;timestamp;pressure;altitude;pressure_sealevel;temperature;humidity
63019;BME280;49105;46.046;10.760;2023-01-26T00:01:48;95728.25;;;3.24;72.02
63019;BME280;49105;46.046;10.760;2023-01-26T00:04:14;95711.66;;;3.31;71.79
63019;BME280;49105;46.046;10.760;2023-01-26T00:06:39;95713.50;;;3.30;71.96
63019;BME280;49105;46.046;10.760;2023-01-26T00:09:05;95711.41;;;3.20;72.04
63019;BME280;49105;46.046;10.760;2023-01-26T00:11:36;95714.84;;;3.21;72.11
63019;BME280;49105;46.046;10.760;2023-01-26T00:14:02;95707.91;;;3.27;71.98
63019;BME280;49105;46.046;10.760;2023-01-26T00:16:34;95707.09;;;3.26;71.71
63019;BME280;49105;46.046;10.760;2023-01-26T00:19:00;95710.38;;;3.10;71.87
63019;BME280;49105;46.046;10.760;2023-01-26T00:21:26;95699.78;;;3.05;72.07
63019;BME280;49105;46.046;10.760;2023-01-26T00:23:52;95704.53;;;3.08;72.17
63019;BME280;49105;46.046;10.760;2023-01-26T00:26:22;95705.13;;;3.10;72.28
63019;BME280;49105;46.046;10.760;2023-01-26T00:28:51;95708.09;;;3.13;72.15
63019;BME280;49105;46.046;10.760;2023-01-26T00:31:26;95705.94;;;3.10;72.06
63019;BME280;49105;46.046;10.760;2023-01-26T00:34:01;95705.69;;;3.12;72.13
63019;BME280;49105;46.046;10.760;2023-01-26T00:36:30;95700.63;;;3.17;72.17
63019;BME280;49105;46.046;10.760;2023-01-26T00:38:55;95689.13;;;3.18;72.02
63019;BME280;49105;46.046;10.760;2023-01-26T00:41:21;95691.63;;;3.13;71.98
63019;BME280;49105;46.046;10.760;2023-01-26T00:44:08;95701.25;;;3.01;72.28
63019;BME280;49105;46.046;10.760;2023-01-26T00:46:33;95699.06;;;2.97;72.36
63019;BME280;49105;46.046;10.760;2023-01-26T00:48:59;95701.09;;;2.95;72.77
63019;BME280;49105;46.046;10.760;2023-01-26T00:51:31;95688.63;;;2.97;72.64
63019;BME280;49105;46.046;10.760;2023-01-26T00:53:56;95694.75;;;3.03;72.44
63019;BME280;49105;46.046;10.760;2023-01-26T00:56:22;95686.13;;;3.03;72.40
63019;BME280;49105;46.046;10.760;2023-01-26T00:58:50;95684.53;;;3.02;72.47
63019;BME280;49105;46.046;10.760;2023-01-26T01:01:18;95689.31;;;3.05;72.47
63019;BME280;49105;46.046;10.760;2023-01-26T01:03:57;95688.19;;;3.01;72.39
63019;BME280;49105;46.046;10.760;2023-01-26T01:06:28;95685.56;;;3.01;72.52
63019;BME280;49105;46.046;10.760;2023-01-26T01:08:56;95687.72;;;3.04;72.44
63019;BME280;49105;46.046;10.760;2023-01-26T01:11:25;95675.91;;;3.01;72.63
63019;BME280;49105;46.046;10.760;2023-01-26T01:14:00;95675.66;;;3.03;72.47
63019;BME280;49105;46.046;10.760;2023-01-26T01:16:26;95681.69;;;3.03;72.45
63019;BME280;49105;46.046;10.760;2023-01-26T01:18:53;95674.44;;;3.05;72.61
63019;BME280;49105;46.046;10.760;2023-01-26T01:21:19;95679.66;;;3.05;72.86
63019;BME280;49105;46.046;10.760;2023-01-26T01:23:44;95679.66;;;3.05;72.56
63019;BME280;49105;46.046;10.760;2023-01-26T01:26:10;95676.81;;;3.07;72.58
63019;BME280;49105;46.046;10.760;2023-01-26T01:28:42;95672.38;;;3.07;72.66
63019;BME280;49105;46.046;10.760;2023-01-26T01:31:13;95667.50;;;3.11;72.51
63019;BME280;49105;46.046;10.760;2023-01-26T01:33:42;95661.03;;;3.13;72.65
63019;BME280;49105;46.046;10.760;2023-01-26T01:36:18;95673.88;;;3.15;72.40
63019;BME280;49105;46.046;10.760;2023-01-26T01:38:45;95665.31;;;3.08;72.36
63019;BME280;49105;46.046;10.760;2023-01-26T01:41:16;95666.59;;;3.05;72.51
63019;BME280;49105;46.046;10.760;2023-01-26T01:43:49;95656.91;;;3.06;72.67
63019;BME280;49105;46.046;10.760;2023-01-26T01:49:05;95652.59;;;3.11;72.48
63019;BME280;49105;46.046;10.760;2023-01-26T01:51:39;95644.41;;;3.08;72.52
63019;BME280;49105;46.046;10.760;2023-01-26T01:54:11;95648.06;;;3.07;72.62
63019;BME280;49105;46.046;10.760;2023-01-26T01:56:40;95643.41;;;3.09;72.53
63019;BME280;49105;46.046;10.760;2023-01-26T01:59:14;95643.41;;;3.09;72.60
63019;BME280;49105;46.046;10.760;2023-01-26T02:01:49;95639.75;;;3.10;72.65
63019;BME280;49105;46.046;10.760;2023-01-26T02:04:20;95632.94;;;3.09;72.50
63019;BME280;49105;46.046;10.760;2023-01-26T02:06:57;95633.16;;;3.07;72.55
63019;BME280;49105;46.046;10.760;2023-01-26T02:09:33;95630.34;;;3.09;72.57
63019;BME280;49105;46.046;10.760;2023-01-26T02:12:22;95630.09;;;3.10;72.41
63019;BME280;49105;46.046;10.760;2023-01-26T02:14:49;95632.47;;;3.12;72.38
63019;BME280;49105;46.046;10.760;2023-01-26T02:17:22;95625.66;;;3.11;72.39
63019;BME280;49105;46.046;10.760;2023-01-26T02:25:39;95617.81;;;3.11;72.38
63019;BME280;49105;46.046;10.760;2023-01-26T02:28:11;95612.03;;;3.09;72.39
63019;BME280;49105;46.046;10.760;2023-01-26T02:30:36;95618.06;;;3.09;72.36
63019;BME280;49105;46.046;10.760;2023-01-26T02:33:20;95613.03;;;3.08;72.32
63019;BME280;49105;46.046;10.760;2023-01-26T02:35:49;95599.41;;;3.06;72.21
63019;BME280;49105;46.046;10.760;2023-01-26T02:38:16;95594.63;;;3.03;72.25
63019;BME280;49105;46.046;10.760;2023-01-26T02:40:56;95595.16;;;2.81;72.16
63019;BME280;49105;46.046;10.760;2023-01-26T02:43:32;95595.00;;;2.64;72.67
63019;BME280;49105;46.046;10.760;2023-01-26T02:45:57;95590.44;;;2.60;72.75
63019;BME280;49105;46.046;10.760;2023-01-26T02:48:23;95584.91;;;2.68;72.96
63019;BME280;49105;46.046;10.760;2023-01-26T02:51:14;95582.72;;;2.65;73.00
63019;BME280;49105;46.046;10.760;2023-01-26T02:53:40;95575.78;;;2.59;72.54
63019;BME280;49105;46.046;10.760;2023-01-26T02:56:14;95575.09;;;2.52;72.64
63019;BME280;49105;46.046;10.760;2023-01-26T02:58:43;95566.53;;;2.44;72.90
63019;BME280;49105;46.046;10.760;2023-01-26T03:01:20;95565.03;;;2.37;72.68
63019;BME280;49105;46.046;10.760;2023-01-26T03:03:46;95558.00;;;2.37;72.86
63019;BME280;49105;46.046;10.760;2023-01-26T03:06:12;95555.38;;;2.37;72.92
63019;BME280;49105;46.046;10.760;2023-01-26T03:08:43;95551.19;;;2.36;72.97
63019;BME280;49105;46.046;10.760;2023-01-26T03:11:18;95557.22;;;2.37;73.03
63019;BME280;49105;46.046;10.760;2023-01-26T03:13:43;95551.44;;;2.35;72.45
63019;BME280;49105;46.046;10.760;2023-01-26T03:16:12;95557.91;;;2.14;72.86
63019;BME280;49105;46.046;10.760;2023-01-26T03:18:37;95545.16;;;2.06;73.21
63019;BME280;49105;46.046;10.760;2023-01-26T03:21:21;95543.31;;;1.94;73.17
63019;BME280;49105;46.046;10.760;2023-01-26T03:24:10;95534.78;;;1.87;73.25
63019;BME280;49105;46.046;10.760;2023-01-26T03:26:54;95531.00;;;1.83;73.26
63019;BME280;49105;46.046;10.760;2023-01-26T03:29:38;95531.91;;;1.77;73.21
63019;BME280;49105;46.046;10.760;2023-01-26T03:32:07;95530.88;;;1.78;73.27
63019;BME280;49105;46.046;10.760;2023-01-26T03:34:41;95528.13;;;1.73;73.44
63019;BME280;49105;46.046;10.760;2023-01-26T03:37:06;95527.41;;;1.66;73.58
63019;BME280;49105;46.046;10.760;2023-01-26T03:39:44;95532.50;;;1.61;73.63
63019;BME280;49105;46.046;10.760;2023-01-26T03:42:28;95534.75;;;1.57;73.77
63019;BME280;49105;46.046;10.760;2023-01-26T03:45:12;95531.97;;;1.52;73.51
63019;BME280;49105;46.046;10.760;2023-01-26T03:48:10;95530.59;;;1.49;73.76
63019;BME280;49105;46.046;10.760;2023-01-26T03:50:55;95525.81;;;1.46;73.67
63019;BME280;49105;46.046;10.760;2023-01-26T03:53:39;95526.59;;;1.47;73.17
63019;BME280;49105;46.046;10.760;2023-01-26T03:56:32;95520.59;;;1.46;72.98
63019;BME280;49105;46.046;10.760;2023-01-26T03:59:05;95521.25;;;1.42;73.02
63019;BME280;49105;46.046;10.760;2023-01-26T04:01:41;95514.88;;;1.38;73.29
63019;BME280;49105;46.046;10.760;2023-01-26T04:04:37;95511.53;;;1.31;73.67
63019;BME280;49105;46.046;10.760;2023-01-26T04:07:21;95513.78;;;1.27;73.06
63019;BME280;49105;46.046;10.760;2023-01-26T04:10:06;95510.00;;;1.23;73.26
63019;BME280;49105;46.046;10.760;2023-01-26T04:12:32;95514.06;;;1.19;73.67
63019;BME280;49105;46.046;10.760;2023-01-26T04:14:57;95507.69;;;1.15;73.39
63019;BME280;49105;46.046;10.760;2023-01-26T04:17:41;95500.91;;;1.14;73.40
63019;BME280;49105;46.046;10.760;2023-01-26T04:20:25;95503.31;;;1.15;73.06
63019;BME280;49105;46.046;10.760;2023-01-26T04:23:17;95509.50;;;1.14;73.26
63019;BME280;49105;46.046;10.760;2023-01-26T04:25:42;95501.31;;;1.11;73.45
63019;BME280;49105;46.046;10.760;2023-01-26T04:28:07;95503.78;;;1.06;73.09
63019;BME280;49105;46.046;10.760;2023-01-26T04:30:33;95497.78;;;1.05;73.36
63019;BME280;49105;46.046;10.760;2023-01-26T04:33:01;95492.19;;;1.02;73.00
63019;BME280;49105;46.046;10.760;2023-01-26T04:35:33;95492.63;;;0.98;73.18
63019;BME280;49105;46.046;10.760;2023-01-26T04:38:05;95485.81;;;0.97;73.40
63019;BME280;49105;46.046;10.760;2023-01-26T04:40:37;95484.22;;;0.96;73.00
63019;BME280;49105;46.046;10.760;2023-01-26T04:43:11;95487.50;;;0.92;72.63
63019;BME280;49105;46.046;10.760;2023-01-26T04:45:37;95484.75;;;0.87;73.17
63019;BME280;49105;46.046;10.760;2023-01-26T04:48:12;95496.59;;;0.83;73.14
63019;BME280;49105;46.046;10.760;2023-01-26T04:50:38;95485.53;;;0.87;72.73
63019;BME280;49105;46.046;10.760;2023-01-26T04:53:03;95484.47;;;0.95;72.93
63019;BME280;49105;46.046;10.760;2023-01-26T04:55:36;95492.91;;;0.90;72.92
63019;BME280;49105;46.046;10.760;2023-01-26T04:58:01;95496.75;;;0.88;72.87
63019;BME280;49105;46.046;10.760;2023-01-26T05:00:32;95493.16;;;0.82;72.83
63019;BME280;49105;46.046;10.760;2023-01-26T05:03:01;95493.16;;;0.82;73.06
63019;BME280;49105;46.046;10.760;2023-01-26T05:05:27;95492.59;;;0.80;72.55
63019;BME280;49105;46.046;10.760;2023-01-26T05:07:59;95492.47;;;0.75;73.13
63019;BME280;49105;46.046;10.760;2023-01-26T05:10:33;95495.19;;;0.62;73.23
63019;BME280;49105;46.046;10.760;2023-01-26T05:13:05;95490.16;;;0.60;73.51
63019;BME280;49105;46.046;10.760;2023-01-26T05:15:37;95495.59;;;0.59;73.04
63019;BME280;49105;46.046;10.760;2023-01-26T05:18:11;95501.38;;;0.61;72.96
63019;BME280;49105;46.046;10.760;2023-01-26T05:20:37;95490.78;;;0.62;72.62
63019;BME280;49105;46.046;10.760;2023-01-26T05:23:02;95497.19;;;0.60;73.24
63019;BME280;49105;46.046;10.760;2023-01-26T05:25:30;95484.59;;;0.57;73.21
63019;BME280;49105;46.046;10.760;2023-01-26T05:28:02;95496.44;;;0.53;73.38
63019;BME280;49105;46.046;10.760;2023-01-26T05:30:36;95499.03;;;0.53;73.01
63019;BME280;49105;46.046;10.760;2023-01-26T05:33:04;95496.06;;;0.49;73.10
63019;BME280;49105;46.046;10.760;2023-01-26T05:35:30;95500.06;;;0.52;72.97
63019;BME280;49105;46.046;10.760;2023-01-26T05:41:02;95499.16;;;0.39;72.89
63019;BME280;49105;46.046;10.760;2023-01-26T05:43:27;95500.47;;;0.48;73.67
63019;BME280;49105;46.046;10.760;2023-01-26T05:45:53;95503.56;;;0.64;72.47
63019;BME280;49105;46.046;10.760;2023-01-26T05:48:19;95501.38;;;0.61;72.75
63019;BME280;49105;46.046;10.760;2023-01-26T05:50:44;95499.03;;;0.53;72.53
63019;BME280;49105;46.046;10.760;2023-01-26T05:53:10;95512.69;;;0.48;73.05
63019;BME280;49105;46.046;10.760;2023-01-26T05:55:35;95505.94;;;0.40;73.04
63019;BME280;49105;46.046;10.760;2023-01-26T05:58:01;95508.72;;;0.45;73.01
63019;BME280;49105;46.046;10.760;2023-01-26T06:00:26;95516.72;;;0.44;72.81
63019;BME280;49105;46.046;10.760;2023-01-26T06:02:52;95509.94;;;0.43;73.17
63019;BME280;49105;46.046;10.760;2023-01-26T06:05:17;95506.75;;;0.41;73.44
63019;BME280;49105;46.046;10.760;2023-01-26T06:07:43;95508.78;;;0.39;72.97
63019;BME280;49105;46.046;10.760;2023-01-26T06:10:09;95511.16;;;0.40;73.07
63019;BME280;49105;46.046;10.760;2023-01-26T06:12:34;95508.53;;;0.40;73.44
63019;BME280;49105;46.046;10.760;2023-01-26T06:15:01;95509.94;;;0.43;73.00
63019;BME280;49105;46.046;10.760;2023-01-26T06:17:26;95509.16;;;0.42;73.23
63019;BME280;49105;46.046;10.760;2023-01-26T06:19:51;95503.56;;;0.39;73.22
63019;BME280;49105;46.046;10.760;2023-01-26T06:22:26;95502.53;;;0.40;72.69
63019;BME280;49105;46.046;10.760;2023-01-26T06:24:52;95497.97;;;0.35;72.79
63019;BME280;49105;46.046;10.760;2023-01-26T06:27:26;95502.44;;;0.28;73.16
63019;BME280;49105;46.046;10.760;2023-01-26T06:29:52;95504.19;;;0.34;73.07
63019;BME280;49105;46.046;10.760;2023-01-26T06:32:21;95498.41;;;0.32;73.06
63019;BME280;49105;46.046;10.760;2023-01-26T06:34:47;95498.63;;;0.31;73.03
63019;BME280;49105;46.046;10.760;2023-01-26T06:37:18;95500.75;;;0.40;73.11
63019;BME280;49105;46.046;10.760;2023-01-26T06:39:47;95492.50;;;0.43;72.63
63019;BME280;49105;46.046;10.760;2023-01-26T06:42:21;95493.09;;;0.45;72.69
63019;BME280;49105;46.046;10.760;2023-01-26T06:44:47;95502.34;;;0.41;72.63
63019;BME280;49105;46.046;10.760;2023-01-26T06:47:13;95494.16;;;0.38;72.72
63019;BME280;49105;46.046;10.760;2023-01-26T06:49:39;95483.94;;;0.36;72.82
63019;BME280;49105;46.046;10.760;2023-01-26T06:52:20;95493.00;;;0.34;72.86
63019;BME280;49105;46.046;10.760;2023-01-26T06:54:49;95484.81;;;0.30;72.42
63019;BME280;49105;46.046;10.760;2023-01-26T06:57:15;95484.22;;;0.28;72.68
63019;BME280;49105;46.046;10.760;2023-01-26T06:59:41;95479.63;;;0.23;73.11
63019;BME280;49105;46.046;10.760;2023-01-26T07:02:15;95480.44;;;0.24;72.67
63019;BME280;49105;46.046;10.760;2023-01-26T07:04:41;95486.25;;;0.26;72.50
63019;BME280;49105;46.046;10.760;2023-01-26T07:07:06;95478.44;;;0.26;73.10
63019;BME280;49105;46.046;10.760;2023-01-26T07:09:32;95476.41;;;0.28;72.83
63019;BME280;49105;46.046;10.760;2023-01-26T07:11:57;95469.59;;;0.27;72.49
63019;BME280;49105;46.046;10.760;2023-01-26T07:14:23;95461.66;;;0.22;72.75
63019;BME280;49105;46.046;10.760;2023-01-26T07:16:48;95465.69;;;0.18;73.10
63019;BME280;49105;46.046;10.760;2023-01-26T07:19:13;95459.50;;;0.12;72.53
63019;BME280;49105;46.046;10.760;2023-01-26T07:21:45;95457.13;;;0.11;72.55
63019;BME280;49105;46.046;10.760;2023-01-26T07:24:10;95460.50;;;0.11;72.66
63019;BME280;49105;46.046;10.760;2023-01-26T07:26:42;95461.56;;;0.04;72.77
63019;BME280;49105;46.046;10.760;2023-01-26T07:29:07;95452.38;;;0.01;72.89
63019;BME280;49105;46.046;10.760;2023-01-26T07:31:33;95445.38;;;0.02;72.58
63019;BME280;49105;46.046;10.760;2023-01-26T07:34:04;95447.75;;;0.03;72.77
63019;BME280;49105;46.046;10.760;2023-01-26T07:36:30;95445.16;;;0.03;73.08
63019;BME280;49105;46.046;10.760;2023-01-26T07:38:55;95445.53;;;0.07;72.69
63019;BME280;49105;46.046;10.760;2023-01-26T07:41:21;95433.94;;;0.03;72.82
63019;BME280;49105;46.046;10.760;2023-01-26T07:43:46;95451.63;;;-0.06;73.03
63019;BME280;49105;46.046;10.760;2023-01-26T07:46:11;95438.22;;;-0.10;72.95
63019;BME280;49105;46.046;10.760;2023-01-26T07:48:37;95443.03;;;-0.07;72.84
63019;BME280;49105;46.046;10.760;2023-01-26T07:51:04;95439.63;;;-0.07;72.80
63019;BME280;49105;46.046;10.760;2023-01-26T07:53:30;95441.84;;;-0.11;72.88
63019;BME280;49105;46.046;10.760;2023-01-26T07:58:34;95444.06;;;-0.14;72.82
63019;BME280;49105;46.046;10.760;2023-01-26T08:03:31;95441.63;;;-0.09;72.35
63019;BME280;49105;46.046;10.760;2023-01-26T08:06:01;95432.88;;;-0.15;72.18
63019;BME280;49105;46.046;10.760;2023-01-26T08:08:26;95432.88;;;-0.15;72.69
63019;BME280;49105;46.046;10.760;2023-01-26T08:10:55;95434.31;;;-0.19;72.77
63019;BME280;49105;46.046;10.760;2023-01-26T08:13:31;95433.13;;;-0.23;73.71
63019;BME280;49105;46.046;10.760;2023-01-26T08:16:14;95430.69;;;-0.18;72.79
63019;BME280;49105;46.046;10.760;2023-01-26T08:18:41;95434.69;;;-0.15;72.92
63019;BME280;49105;46.046;10.760;2023-01-26T08:21:18;95429.09;;;-0.19;72.96
63019;BME280;49105;46.046;10.760;2023-01-26T08:23:50;95432.28;;;-0.17;73.00
63019;BME280;49105;46.046;10.760;2023-01-26T08:26:16;95439.66;;;-0.14;73.17
63019;BME280;49105;46.046;10.760;2023-01-26T08:28:48;95438.06;;;-0.15;72.67
63019;BME280;49105;46.046;10.760;2023-01-26T08:31:16;95438.88;;;-0.14;72.85
63019;BME280;49105;46.046;10.760;2023-01-26T08:33:51;95443.44;;;-0.10;72.67
63019;BME280;49105;46.046;10.760;2023-01-26T08:36:17;95442.88;;;-0.12;72.85
63019;BME280;49105;46.046;10.760;2023-01-26T08:38:43;95445.13;;;-0.22;72.91
63019;BME280;49105;46.046;10.760;2023-01-26T08:41:10;95448.34;;;-0.27;73.23
63019;BME280;49105;46.046;10.760;2023-01-26T08:43:36;95446.91;;;-0.22;73.33
63019;BME280;49105;46.046;10.760;2023-01-26T08:46:02;95448.31;;;-0.20;73.42
63019;BME280;49105;46.046;10.760;2023-01-26T08:48:30;95446.91;;;-0.16;72.72
63019;BME280;49105;46.046;10.760;2023-01-26T08:51:06;95448.63;;;-0.10;73.15
63019;BME280;49105;46.046;10.760;2023-01-26T08:53:33;95440.84;;;-0.10;73.05
63019;BME280;49105;46.046;10.760;2023-01-26T08:56:10;95446.41;;;-0.06;73.47
63019;BME280;49105;46.046;10.760;2023-01-26T08:58:36;95441.00;;;-0.05;72.89
63019;BME280;49105;46.046;10.760;2023-01-26T09:01:05;95443.03;;;-0.07;72.59
63019;BME280;49105;46.046;10.760;2023-01-26T09:03:38;95446.03;;;-0.10;73.04
63019;BME280;49105;46.046;10.760;2023-01-26T09:06:04;95441.44;;;-0.08;73.02
63019;BME280;49105;46.046;10.760;2023-01-26T09:08:36;95430.59;;;-0.05;73.25
63019;BME280;49105;46.046;10.760;2023-01-26T09:11:05;95426.25;;;-0.11;72.89
63019;BME280;49105;46.046;10.760;2023-01-26T09:13:40;95435.06;;;-0.12;73.38
63019;BME280;49105;46.046;10.760;2023-01-26T09:16:11;95425.44;;;-0.11;73.23
63019;BME280;49105;46.046;10.760;2023-01-26T09:18:39;95425.84;;;-0.08;73.13
63019;BME280;49105;46.046;10.760;2023-01-26T09:21:17;95426.22;;;-0.04;72.83
63019;BME280;49105;46.046;10.760;2023-01-26T09:23:42;95425.56;;;0.01;73.29
63019;BME280;49105;46.046;10.760;2023-01-26T09:26:08;95420.94;;;0.03;73.07
63019;BME280;49105;46.046;10.760;2023-01-26T09:28:33;95426.91;;;0.10;72.91
63019;BME280;49105;46.046;10.760;2023-01-26T09:31:07;95432.91;;;0.35;72.98
63019;BME280;49105;46.046;10.760;2023-01-26T09:33:35;95429.06;;;0.81;72.27
63019;BME280;49105;46.046;10.760;2023-01-26T09:36:05;95429.00;;;1.24;71.58
63019;BME280;49105;46.046;10.760;2023-01-26T09:38:31;95424.56;;;1.25;71.07
63019;BME280;49105;46.046;10.760;2023-01-26T09:43:52;95423.44;;;1.21;71.34
63019;BME280;49105;46.046;10.760;2023-01-26T09:46:31;95424.00;;;1.23;71.97
63019;BME280;49105;46.046;10.760;2023-01-26T09:49:05;95417.41;;;1.20;71.25
63019;BME280;49105;46.046;10.760;2023-01-26T09:51:46;95416.63;;;1.20;71.18
63019;BME280;49105;46.046;10.760;2023-01-26T09:54:47;95416.16;;;1.23;71.86
63019;BME280;49105;46.046;10.760;2023-01-26T09:57:19;95418.94;;;1.28;71.63
63019;BME280;49105;46.046;10.760;2023-01-26T10:00:04;95415.31;;;1.29;71.33
63019;BME280;49105;46.046;10.760;2023-01-26T10:08:01;95396.16;;;1.35;71.27
63019;BME280;49105;46.046;10.760;2023-01-26T10:10:36;95399.91;;;1.39;71.51
63019;BME280;49105;46.046;10.760;2023-01-26T10:13:09;95391.59;;;1.49;71.09
63019;BME280;49105;46.046;10.760;2023-01-26T10:15:51;95387.56;;;1.65;71.47
63019;BME280;49105;46.046;10.760;2023-01-26T10:18:25;95378.94;;;1.76;71.12
63019;BME280;49105;46.046;10.760;2023-01-26T10:20:58;95385.00;;;1.88;71.08
63019;BME280;49105;46.046;10.760;2023-01-26T10:23:42;95379.81;;;2.00;70.73
63019;BME280;49105;46.046;10.760;2023-01-26T10:26:16;95372.88;;;2.06;70.36
63019;BME280;49105;46.046;10.760;2023-01-26T10:28:43;95371.56;;;2.15;70.56
63019;BME280;49105;46.046;10.760;2023-01-26T10:31:33;95363.50;;;2.28;70.36
63019;BME280;49105;46.046;10.760;2023-01-26T10:34:00;95359.75;;;2.36;70.19
63019;BME280;49105;46.046;10.760;2023-01-26T10:36:41;95360.66;;;2.41;70.14
63019;BME280;49105;46.046;10.760;2023-01-26T10:39:14;95351.13;;;2.47;69.84
63019;BME280;49105;46.046;10.760;2023-01-26T10:41:55;95351.31;;;2.57;70.01
63019;BME280;49105;46.046;10.760;2023-01-26T10:44:41;95338.81;;;2.71;69.87
63019;BME280;49105;46.046;10.760;2023-01-26T10:47:18;95340.94;;;2.86;69.78
63019;BME280;49105;46.046;10.760;2023-01-26T10:49:45;95330.13;;;2.94;69.30
63019;BME280;49105;46.046;10.760;2023-01-26T10:52:22;95324.19;;;2.98;69.41
63019;BME280;49105;46.046;10.760;2023-01-26T10:55:09;95322.47;;;3.04;68.91
63019;BME280;49105;46.046;10.760;2023-01-26T10:57:44;95315.66;;;3.03;68.99
63019;BME280;49105;46.046;10.760;2023-01-26T11:00:30;95305.19;;;3.03;68.72
63019;BME280;49105;46.046;10.760;2023-01-26T11:05:38;95295.06;;;3.07;68.48
63019;BME280;49105;46.046;10.760;2023-01-26T11:08:31;95291.53;;;3.13;68.42
63019;BME280;49105;46.046;10.760;2023-01-26T11:10:59;95291.75;;;3.11;68.44
63019;BME280;49105;46.046;10.760;2023-01-26T11:13:25;95292.78;;;3.10;68.13
63019;BME280;49105;46.046;10.760;2023-01-26T11:16:21;95279.81;;;3.15;68.06
63019;BME280;49105;46.046;10.760;2023-01-26T11:19:02;95274.56;;;3.15;67.79
63019;BME280;49105;46.046;10.760;2023-01-26T11:21:39;95260.56;;;3.21;67.78
63019;BME280;49105;46.046;10.760;2023-01-26T11:24:40;95247.91;;;3.30;67.76
63019;BME280;49105;46.046;10.760;2023-01-26T11:32:50;95229.94;;;3.51;67.38
63019;BME280;49105;46.046;10.760;2023-01-26T11:38:39;95217.94;;;3.71;67.38
63019;BME280;49105;46.046;10.760;2023-01-26T11:52:02;95194.03;;;4.23;66.68
63019;BME280;49105;46.046;10.760;2023-01-26T11:55:02;95182.41;;;4.36;66.11
63019;BME280;49105;46.046;10.760;2023-01-26T12:00:36;95164.06;;;4.58;65.14
63019;BME280;49105;46.046;10.760;2023-01-26T12:03:04;95168.91;;;4.71;64.62
63019;BME280;49105;46.046;10.760;2023-01-26T12:05:40;95167.84;;;4.72;64.81
63019;BME280;49105;46.046;10.760;2023-01-26T12:11:37;95145.13;;;4.78;64.52
63019;BME280;49105;46.046;10.760;2023-01-26T12:16:56;95129.78;;;4.92;64.68
63019;BME280;49105;46.046;10.760;2023-01-26T12:20:01;95127.72;;;4.94;64.59
63019;BME280;49105;46.046;10.760;2023-01-26T12:25:26;95124.06;;;5.00;64.18
63019;BME280;49105;46.046;10.760;2023-01-26T12:28:04;95114.97;;;5.08;63.86
63019;BME280;49105;46.046;10.760;2023-01-26T12:31:08;95111.38;;;5.19;63.52
63019;BME280;49105;46.046;10.760;2023-01-26T12:33:37;95110.41;;;5.30;62.95
63019;BME280;49105;46.046;10.760;2023-01-26T12:36:15;95104.13;;;5.31;63.06
63019;BME280;49105;46.046;10.760;2023-01-26T12:41:18;95093.38;;;5.33;62.98
63019;BME280;49105;46.046;10.760;2023-01-26T12:46:40;95088.94;;;5.38;62.67
63019;BME280;49105;46.046;10.760;2023-01-26T12:49:13;95081.38;;;5.47;62.35
63019;BME280;49105;46.046;10.760;2023-01-26T12:51:47;95074.34;;;5.53;62.08
63019;BME280;49105;46.046;10.760;2023-01-26T12:54:30;95072.53;;;5.58;62.16
63019;BME280;49105;46.046;10.760;2023-01-26T12:57:00;95062.59;;;5.65;61.80
63019;BME280;49105;46.046;10.760;2023-01-26T12:59:32;95059.69;;;5.67;61.21
63019;BME280;49105;46.046;10.760;2023-01-26T13:02:08;95055.22;;;5.67;61.46
63019;BME280;49105;46.046;10.760;2023-01-26T13:04:38;95049.47;;;5.70;61.33
63019;BME280;49105;46.046;10.760;2023-01-26T13:07:34;95045.56;;;5.78;61.30
63019;BME280;49105;46.046;10.760;2023-01-26T13:12:45;95045.09;;;5.91;61.09
63019;BME280;49105;46.046;10.760;2023-01-26T13:15:13;95041.72;;;5.96;61.18
63019;BME280;49105;46.046;10.760;2023-01-26T13:18:01;95042.28;;;5.98;61.38
63019;BME280;49105;46.046;10.760;2023-01-26T13:26:16;95040.44;;;5.93;61.17
63019;BME280;49105;46.046;10.760;2023-01-26T13:28:42;95038.28;;;5.90;61.04
63019;BME280;49105;46.046;10.760;2023-01-26T13:31:30;95040.31;;;5.73;60.63
63019;BME280;49105;46.046;10.760;2023-01-26T13:34:07;95034.47;;;5.61;60.17
63019;BME280;49105;46.046;10.760;2023-01-26T13:36:35;95026.53;;;5.51;60.32
63019;BME280;49105;46.046;10.760;2023-01-26T13:39:29;95027.28;;;5.41;60.79
63019;BME280;49105;46.046;10.760;2023-01-26T13:42:09;95032.25;;;5.37;60.82
63019;BME280;49105;46.046;10.760;2023-01-26T13:44:43;95018.06;;;5.33;60.73
63019;BME280;49105;46.046;10.760;2023-01-26T13:50:34;95024.88;;;5.34;60.75
63019;BME280;49105;46.046;10.760;2023-01-26T13:53:28;95018.88;;;5.39;60.91
63019;BME280;49105;46.046;10.760;2023-01-26T13:56:02;95010.75;;;5.40;60.71
63019;BME280;49105;46.046;10.760;2023-01-26T13:58:37;95010.75;;;5.40;60.52
63019;BME280;49105;46.046;10.760;2023-01-26T14:01:13;95010.75;;;5.40;60.76
63019;BME280;49105;46.046;10.760;2023-01-26T14:03:39;95015.47;;;5.38;60.56
63019;BME280;49105;46.046;10.760;2023-01-26T14:06:08;95014.16;;;5.41;60.49
63019;BME280;49105;46.046;10.760;2023-01-26T14:08:36;95014.44;;;5.39;60.48
63019;BME280;49105;46.046;10.760;2023-01-26T14:11:13;95007.34;;;5.40;60.56
63019;BME280;49105;46.046;10.760;2023-01-26T14:13:46;95013.38;;;5.40;60.63
63019;BME280;49105;46.046;10.760;2023-01-26T14:16:30;95008.91;;;5.41;60.43
63019;BME280;49105;46.046;10.760;2023-01-26T14:19:13;95011.00;;;5.39;59.97
63019;BME280;49105;46.046;10.760;2023-01-26T14:24:32;95011.22;;;5.27;60.55
63019;BME280;49105;46.046;10.760;2023-01-26T14:26:58;95018.03;;;5.28;60.50
63019;BME280;49105;46.046;10.760;2023-01-26T14:29:25;95014.38;;;5.29;60.44
63019;BME280;49105;46.046;10.760;2023-01-26T14:31:52;95017.00;;;5.29;60.18
63019;BME280;49105;46.046;10.760;2023-01-26T14:34:27;95018.53;;;5.25;60.42
63019;BME280;49105;46.046;10.760;2023-01-26T14:37:05;95020.66;;;5.23;60.30
63019;BME280;49105;46.046;10.760;2023-01-26T14:39:37;95026.66;;;5.18;60.28
63019;BME280;49105;46.046;10.760;2023-01-26T14:42:12;95022.94;;;5.14;60.28
63019;BME280;49105;46.046;10.760;2023-01-26T14:44:48;95023.19;;;5.13;60.91
63019;BME280;49105;46.046;10.760;2023-01-26T14:47:19;95024.50;;;5.10;60.65